createdAt,value
2023-03-01T00:01:24.674Z,37.33
2023-03-01T00:03:52.831Z,38.72
2023-03-01T00:06:21.225Z,40.38
2023-03-01T00:08:49.502Z,38.58
2023-03-01T00:11:22.422Z,39.85
2023-03-01T00:13:52.860Z,38.20
2023-03-01T00:16:25.913Z,39.67
2023-03-01T00:18:55.646Z,37.08
2023-03-01T00:21:23.936Z,36.97
2023-03-01T00:23:52.017Z,37.92
2023-03-01T00:26:21.485Z,39.35
2023-03-01T00:28:49.444Z,36.83
2023-03-01T00:31:19.884Z,37.00
2023-03-01T00:33:47.892Z,38.28
2023-03-01T00:36:16.807Z,36.25
2023-03-01T00:38:45.980Z,35.40
2023-03-01T00:41:15.685Z,35.85
2023-03-01T00:43:43.951Z,36.17
2023-03-01T00:46:16.573Z,36.13
2023-03-01T00:48:44.696Z,35.45
2023-03-01T00:51:14.834Z,34.42
2023-03-01T00:53:43.214Z,35.55
2023-03-01T00:56:12.416Z,34.88
2023-03-01T00:58:40.077Z,36.22
2023-03-01T01:01:18.370Z,37.15
2023-03-01T01:03:50.789Z,35.33
2023-03-01T01:06:45.507Z,35.37
2023-03-01T01:09:20.817Z,34.83
2023-03-01T01:11:50.939Z,34.08
2023-03-01T01:14:19.903Z,33.30
2023-03-01T01:16:47.791Z,35.33
2023-03-01T01:19:16.527Z,35.78
2023-03-01T01:21:44.359Z,35.30
2023-03-01T01:24:12.489Z,34.47
2023-03-01T01:26:39.798Z,35.97
2023-03-01T01:29:08.003Z,33.45
2023-03-01T01:31:37.193Z,35.10
2023-03-01T01:34:07.173Z,34.47
2023-03-01T01:36:35.636Z,35.60
2023-03-01T01:39:03.642Z,36.80
2023-03-01T01:41:31.232Z,35.47
2023-03-01T01:44:24.612Z,36.00
2023-03-01T01:46:55.889Z,32.97
2023-03-01T01:49:29.322Z,33.65
2023-03-01T01:52:22.122Z,34.35
2023-03-01T01:55:14.175Z,32.53
2023-03-01T01:57:53.722Z,32.47
2023-03-01T02:00:26.624Z,34.63
2023-03-01T02:03:01.118Z,36.08
2023-03-01T02:06:07.412Z,33.78
2023-03-01T02:08:38.187Z,32.95
2023-03-01T02:11:06.777Z,33.72
2023-03-01T02:13:34.790Z,32.22
2023-03-01T02:16:06.841Z,31.35
2023-03-01T02:18:34.181Z,33.78
2023-03-01T02:21:01.686Z,33.85
2023-03-01T02:23:31.037Z,31.10
2023-03-01T02:26:29.668Z,33.13
2023-03-01T02:28:57.256Z,34.63
2023-03-01T02:31:43.331Z,32.53
2023-03-01T02:34:18.273Z,33.85
2023-03-01T02:36:51.641Z,31.85
2023-03-01T02:41:51.359Z,32.60
2023-03-01T02:44:18.919Z,32.63
2023-03-01T02:46:52.987Z,34.72
2023-03-01T02:49:21.638Z,35.38
2023-03-01T02:52:26.836Z,36.53
2023-03-01T02:55:09.834Z,35.85
2023-03-01T02:57:40.338Z,37.53
2023-03-01T03:00:23.931Z,39.58
2023-03-01T03:02:53.771Z,39.08
2023-03-01T03:05:27.352Z,37.05
2023-03-01T03:07:59.822Z,36.95
2023-03-01T03:10:30.316Z,34.03
2023-03-01T03:13:01.614Z,34.63
2023-03-01T03:15:30.189Z,34.95
2023-03-01T03:17:59.498Z,35.25
2023-03-01T03:20:28.860Z,34.80
2023-03-01T03:22:59.431Z,34.55
2023-03-01T03:25:28.924Z,34.63
2023-03-01T03:27:58.293Z,34.33
2023-03-01T03:30:29.340Z,34.33
2023-03-01T03:32:57.753Z,34.50
2023-03-01T03:35:26.488Z,34.38
2023-03-01T03:38:12.499Z,34.05
2023-03-01T03:40:41.878Z,31.33
2023-03-01T03:43:13.294Z,32.22
2023-03-01T03:45:40.989Z,32.33
2023-03-01T03:48:13.386Z,33.60
2023-03-01T03:50:41.397Z,32.95
2023-03-01T03:53:11.937Z,33.28
2023-03-01T03:55:40.504Z,33.17
2023-03-01T03:58:10.830Z,32.38
2023-03-01T04:00:43.374Z,33.63
2023-03-01T04:05:41.009Z,31.17
2023-03-01T04:08:09.883Z,31.20
2023-03-01T04:10:42.769Z,35.72
2023-03-01T04:13:15.690Z,35.33
2023-03-01T04:15:44.581Z,32.85
2023-03-01T04:18:16.791Z,32.40
2023-03-01T04:20:46.213Z,31.73
2023-03-01T04:23:21.682Z,32.53
2023-03-01T04:25:58.115Z,31.58
2023-03-01T04:28:30.119Z,33.78
2023-03-01T04:30:59.097Z,31.02
2023-03-01T04:33:26.862Z,32.25
2023-03-01T04:35:54.496Z,32.35
2023-03-01T04:38:22.471Z,32.47
2023-03-01T04:40:49.741Z,32.38
2023-03-01T04:43:18.746Z,34.10
2023-03-01T04:45:46.367Z,33.60
2023-03-01T04:48:14.031Z,34.67
2023-03-01T04:50:41.354Z,33.67
2023-03-01T04:53:09.179Z,34.17
2023-03-01T04:55:36.512Z,34.13
2023-03-01T04:58:04.123Z,33.65
2023-03-01T05:00:31.447Z,30.65
2023-03-01T05:03:01.610Z,33.13
2023-03-01T05:05:32.202Z,33.08
2023-03-01T05:08:02.311Z,31.65
2023-03-01T05:10:31.593Z,32.47
2023-03-01T05:13:00.313Z,33.20
2023-03-01T05:15:29.102Z,31.13
2023-03-01T05:18:00.285Z,31.95
2023-03-01T05:20:30.066Z,30.20
2023-03-01T05:23:01.147Z,30.30
2023-03-01T05:25:34.268Z,29.90
2023-03-01T05:28:05.503Z,33.42
2023-03-01T05:30:34.701Z,33.55
2023-03-01T05:33:02.699Z,32.15
2023-03-01T05:35:30.781Z,33.03
2023-03-01T05:37:58.372Z,34.53
2023-03-01T05:40:25.689Z,32.35
2023-03-01T05:42:57.841Z,32.85
2023-03-01T05:45:26.100Z,34.05
2023-03-01T05:47:56.231Z,36.30
2023-03-01T05:50:27.292Z,34.45
2023-03-01T05:53:06.817Z,35.53
2023-03-01T05:55:35.559Z,36.63
2023-03-01T05:58:06.527Z,37.95
2023-03-01T06:00:35.006Z,35.72
2023-03-01T06:03:03.529Z,35.72
2023-03-01T06:05:31.264Z,35.95
2023-03-01T06:08:03.003Z,36.30
2023-03-01T06:10:30.575Z,34.75
2023-03-01T06:12:58.415Z,37.13
2023-03-01T06:15:26.551Z,38.13
2023-03-01T06:18:00.312Z,37.72
2023-03-01T06:20:29.902Z,37.90
2023-03-01T06:22:57.981Z,37.05
2023-03-01T06:25:27.814Z,37.38
2023-03-01T06:27:57.086Z,38.70
2023-03-01T06:30:30.919Z,36.88
2023-03-01T06:33:02.546Z,37.67
2023-03-01T06:35:31.196Z,36.88
2023-03-01T06:38:00.124Z,37.03
2023-03-01T06:40:27.774Z,35.55
2023-03-01T06:42:55.883Z,36.53
2023-03-01T06:45:23.107Z,35.90
2023-03-01T06:47:50.835Z,36.13
2023-03-01T06:50:19.077Z,34.38
2023-03-01T06:55:17.335Z,34.42
2023-03-01T06:57:45.308Z,35.03
2023-03-01T07:00:13.305Z,34.85
2023-03-01T07:02:41.141Z,33.47
2023-03-01T07:05:09.878Z,33.88
2023-03-01T07:07:37.464Z,32.30
2023-03-01T07:10:05.141Z,32.42
2023-03-01T07:12:33.835Z,32.17
2023-03-01T07:15:01.198Z,31.05
2023-03-01T07:17:29.206Z,29.70
2023-03-01T07:19:57.246Z,28.65
2023-03-01T07:22:24.755Z,30.67
2023-03-01T07:24:52.214Z,28.98
2023-03-01T07:27:19.775Z,29.60
2023-03-01T07:29:46.903Z,28.13
2023-03-01T07:32:14.663Z,27.63
2023-03-01T07:34:42.189Z,28.25
2023-03-01T07:37:10.254Z,26.52
2023-03-01T07:39:37.414Z,27.20
2023-03-01T07:42:04.846Z,25.65
2023-03-01T07:44:32.334Z,26.10
2023-03-01T07:46:59.804Z,27.35
2023-03-01T07:49:28.216Z,25.17
2023-03-01T07:51:56.251Z,24.83
2023-03-01T07:54:23.643Z,24.80
2023-03-01T07:56:51.485Z,29.30
2023-03-01T07:59:18.934Z,26.50
2023-03-01T08:01:46.859Z,28.45
2023-03-01T08:04:14.307Z,30.45
2023-03-01T08:06:42.255Z,28.35
2023-03-01T08:09:10.575Z,23.40
2023-03-01T08:11:38.781Z,24.33
2023-03-01T08:14:07.546Z,24.00
2023-03-01T08:16:36.586Z,22.40
2023-03-01T08:19:12.221Z,22.67
2023-03-01T08:21:40.205Z,22.52
2023-03-01T08:24:08.845Z,23.23
2023-03-01T08:26:36.534Z,23.40
2023-03-01T08:29:04.161Z,23.85
2023-03-01T08:31:37.779Z,24.25
2023-03-01T08:34:13.400Z,21.92
2023-03-01T08:36:43.165Z,22.13
2023-03-01T08:39:12.541Z,22.20
2023-03-01T08:41:40.496Z,24.83
2023-03-01T08:44:07.899Z,22.80
2023-03-01T08:46:38.651Z,23.98
2023-03-01T08:49:12.653Z,24.23
2023-03-01T08:51:40.777Z,24.45
2023-03-01T08:54:12.324Z,23.45
2023-03-01T08:56:40.418Z,23.13
2023-03-01T08:59:07.980Z,23.05
2023-03-01T09:01:35.564Z,23.02
2023-03-01T09:04:02.856Z,24.13
2023-03-01T09:06:39.916Z,22.58
2023-03-01T09:09:08.018Z,23.15
2023-03-01T09:11:35.987Z,23.52
2023-03-01T09:14:06.886Z,21.70
2023-03-01T09:16:37.227Z,20.98
2023-03-01T09:19:05.393Z,21.65
2023-03-01T09:21:40.187Z,22.58
2023-03-01T09:24:14.248Z,22.50
2023-03-01T09:26:42.459Z,20.90
2023-03-01T09:29:11.057Z,21.25
2023-03-01T09:31:39.393Z,21.58
2023-03-01T09:34:07.287Z,21.45
2023-03-01T09:36:35.334Z,22.88
2023-03-01T09:39:03.431Z,22.95
2023-03-01T09:41:55.980Z,22.10
2023-03-01T09:44:47.672Z,20.67
2023-03-01T09:47:30.841Z,20.80
2023-03-01T09:50:15.147Z,22.35
2023-03-01T09:52:50.003Z,21.85
2023-03-01T09:55:23.439Z,19.35
2023-03-01T09:57:54.686Z,19.17
2023-03-01T10:00:35.752Z,20.25
2023-03-01T10:03:40.843Z,19.70
2023-03-01T10:06:08.210Z,19.20
2023-03-01T10:08:43.195Z,17.52
2023-03-01T10:11:23.302Z,17.95
2023-03-01T10:14:30.367Z,18.55
2023-03-01T10:17:04.936Z,19.25
2023-03-01T10:19:38.048Z,19.48
2023-03-01T10:22:17.610Z,21.33
2023-03-01T10:24:47.724Z,19.95
2023-03-01T10:27:31.192Z,19.42
2023-03-01T10:30:10.861Z,19.15
2023-03-01T10:32:38.493Z,21.85
2023-03-01T10:35:26.378Z,20.23
2023-03-01T10:38:14.747Z,19.55
2023-03-01T10:41:02.467Z,18.23
2023-03-01T10:43:54.916Z,18.90
2023-03-01T10:46:29.911Z,19.02
2023-03-01T10:49:07.193Z,19.15
2023-03-01T10:51:35.005Z,18.08
2023-03-01T10:54:36.594Z,18.55
2023-03-01T10:57:05.916Z,16.67
2023-03-01T10:59:35.453Z,17.23
2023-03-01T11:02:25.651Z,17.33
2023-03-01T11:05:22.523Z,16.77
2023-03-01T11:08:00.868Z,17.38
2023-03-01T11:10:29.744Z,16.92
2023-03-01T11:13:17.285Z,17.25
2023-03-01T11:15:45.069Z,15.88
2023-03-01T11:18:31.075Z,16.60
2023-03-01T11:21:03.242Z,16.33
2023-03-01T11:23:32.060Z,16.23
2023-03-01T11:26:13.100Z,16.40
2023-03-01T11:28:43.336Z,16.85
2023-03-01T11:31:16.010Z,18.63
2023-03-01T11:36:18.573Z,18.52
2023-03-01T11:38:46.583Z,20.15
2023-03-01T11:41:23.077Z,20.17
2023-03-01T11:43:54.580Z,18.58
2023-03-01T11:47:01.619Z,19.75
2023-03-01T11:50:03.153Z,20.42
2023-03-01T11:52:56.182Z,19.45
2023-03-01T11:55:52.686Z,20.25
2023-03-01T11:58:38.645Z,20.40
2023-03-01T12:01:31.189Z,20.45
2023-03-01T12:04:37.775Z,18.70
2023-03-01T12:07:20.646Z,21.17
2023-03-01T12:09:53.862Z,20.88
2023-03-01T12:12:32.271Z,21.40
2023-03-01T12:15:36.844Z,20.95
2023-03-01T12:18:14.781Z,18.92
2023-03-01T12:20:48.059Z,22.77
2023-03-01T12:23:38.211Z,19.15
2023-03-01T12:26:15.493Z,19.00
2023-03-01T12:28:53.222Z,19.20
2023-03-01T12:31:58.013Z,20.50
2023-03-01T12:34:31.379Z,19.08
2023-03-01T12:37:23.249Z,17.98
2023-03-01T12:40:18.959Z,20.17
2023-03-01T12:43:07.830Z,19.00
2023-03-01T12:46:01.739Z,19.75
2023-03-01T12:51:04.190Z,17.80
2023-03-01T12:53:43.537Z,17.83
2023-03-01T12:56:13.569Z,18.70
2023-03-01T12:58:58.665Z,18.85
2023-03-01T13:01:44.921Z,20.38
2023-03-01T13:04:30.312Z,18.17
2023-03-01T13:07:07.116Z,19.27
2023-03-01T13:09:52.855Z,17.90
2023-03-01T13:12:50.140Z,18.30
2023-03-01T13:15:23.425Z,18.45
2023-03-01T13:17:55.870Z,18.00
2023-03-01T13:20:50.653Z,17.53
2023-03-01T13:23:23.802Z,18.02
2023-03-01T13:26:12.954Z,18.63
2023-03-01T13:28:43.103Z,19.33
2023-03-01T13:31:12.660Z,18.05
2023-03-01T13:33:44.256Z,17.73
2023-03-01T13:36:34.390Z,18.02
2023-03-01T13:39:22.893Z,18.88
2023-03-01T13:41:52.975Z,18.55
2023-03-01T13:44:55.661Z,20.02
2023-03-01T13:47:23.000Z,17.70
2023-03-01T13:50:01.885Z,20.30
2023-03-01T13:52:48.034Z,18.65
2023-03-01T13:55:15.726Z,18.88
2023-03-01T13:57:46.163Z,18.85
2023-03-01T14:00:31.590Z,18.33
2023-03-01T14:03:16.945Z,18.42
2023-03-01T14:06:17.711Z,19.45
2023-03-01T14:08:47.472Z,18.70
2023-03-01T14:11:33.484Z,19.63
2023-03-01T14:14:40.136Z,19.23
2023-03-01T14:17:20.757Z,18.58
2023-03-01T14:19:49.345Z,19.58
2023-03-01T14:22:30.868Z,19.45
2023-03-01T14:25:04.940Z,18.48
2023-03-01T14:27:43.838Z,19.20
2023-03-01T14:30:35.657Z,18.13
2023-03-01T14:33:07.753Z,18.77
2023-03-01T14:35:37.261Z,18.02
2023-03-01T14:38:05.316Z,18.85
2023-03-01T14:40:37.760Z,20.92
2023-03-01T14:43:24.188Z,19.05
2023-03-01T14:45:52.030Z,20.02
2023-03-01T14:48:20.509Z,20.02
2023-03-01T14:50:48.463Z,19.40
2023-03-01T14:53:50.923Z,20.30
2023-03-01T14:56:20.011Z,20.40
2023-03-01T14:58:57.462Z,19.50
2023-03-01T15:01:28.921Z,20.27
2023-03-01T15:03:56.724Z,22.92
2023-03-01T15:06:25.263Z,19.52
2023-03-01T15:08:55.107Z,23.50
2023-03-01T15:11:34.145Z,42.00
2023-03-01T15:14:01.982Z,33.80
2023-03-01T15:16:34.465Z,37.63
2023-03-01T15:21:36.192Z,31.02
2023-03-01T15:26:43.351Z,25.65
2023-03-01T15:29:31.165Z,22.95
2023-03-01T15:32:05.040Z,31.45
2023-03-01T15:34:40.885Z,24.42
2023-03-01T15:37:50.273Z,22.92
2023-03-01T15:40:32.791Z,53.28
2023-03-01T15:43:00.447Z,30.42
2023-03-01T15:45:35.119Z,55.70
2023-03-01T15:48:05.295Z,44.33
2023-03-01T15:50:35.637Z,30.48
2023-03-01T15:53:15.540Z,27.17
2023-03-01T15:55:43.883Z,24.08
2023-03-01T15:58:14.715Z,23.48
2023-03-01T16:00:59.149Z,25.23
2023-03-01T16:03:27.694Z,23.67
2023-03-01T16:05:55.583Z,22.90
2023-03-01T16:08:23.039Z,24.40
2023-03-01T16:10:52.664Z,23.25
2023-03-01T16:13:20.528Z,24.40
2023-03-01T16:15:48.638Z,24.85
2023-03-01T16:18:21.351Z,24.17
2023-03-01T16:20:50.009Z,26.65
2023-03-01T16:23:17.444Z,25.23
2023-03-01T16:25:45.528Z,27.77
2023-03-01T16:28:12.991Z,30.95
2023-03-01T16:30:41.080Z,29.95
2023-03-01T16:33:26.900Z,29.20
2023-03-01T16:35:57.212Z,29.70
2023-03-01T16:38:24.683Z,32.83
2023-03-01T16:40:52.995Z,30.05
2023-03-01T16:43:20.328Z,27.60
2023-03-01T16:45:48.112Z,29.88
2023-03-01T16:48:15.816Z,28.30
2023-03-01T16:50:43.601Z,28.50
2023-03-01T16:53:11.102Z,31.10
2023-03-01T16:55:39.137Z,31.48
2023-03-01T16:58:06.912Z,31.08
2023-03-01T17:00:34.656Z,27.98
2023-03-01T17:03:02.052Z,28.05
2023-03-01T17:05:30.077Z,27.85
2023-03-01T17:07:58.318Z,29.83
2023-03-01T17:10:25.954Z,30.75
2023-03-01T17:12:53.307Z,31.10
2023-03-01T17:15:21.096Z,32.72
2023-03-01T17:17:52.236Z,40.97
2023-03-01T17:20:20.536Z,39.17
2023-03-01T17:22:47.904Z,38.17
2023-03-01T17:25:16.664Z,31.77
2023-03-01T17:27:44.709Z,31.23
2023-03-01T17:30:14.766Z,31.30
2023-03-01T17:32:44.064Z,31.98
2023-03-01T17:35:12.620Z,28.98
2023-03-01T17:37:46.702Z,35.20
2023-03-01T17:40:15.082Z,36.22
2023-03-01T17:42:42.591Z,35.10
2023-03-01T17:45:11.518Z,35.15
2023-03-01T17:47:39.458Z,35.47
2023-03-01T17:50:09.886Z,37.95
2023-03-01T17:52:37.805Z,35.95
2023-03-01T17:55:06.164Z,34.42
2023-03-01T17:57:34.250Z,36.10
2023-03-01T18:00:02.381Z,36.42
2023-03-01T18:02:39.237Z,36.65
2023-03-01T18:05:07.818Z,36.20
2023-03-01T18:07:35.517Z,36.28
2023-03-01T18:10:04.276Z,35.70
2023-03-01T18:12:32.630Z,37.90
2023-03-01T18:15:00.344Z,37.30
2023-03-01T18:17:27.738Z,34.83
2023-03-01T18:19:56.980Z,36.28
2023-03-01T18:22:25.742Z,35.20
2023-03-01T18:24:54.461Z,34.92
2023-03-01T18:27:21.875Z,34.08
2023-03-01T18:29:50.051Z,35.90
2023-03-01T18:32:18.390Z,34.33
2023-03-01T18:34:46.307Z,32.88
2023-03-01T18:37:14.794Z,32.58
2023-03-01T18:39:42.502Z,32.80
2023-03-01T18:42:10.296Z,31.90
2023-03-01T18:44:38.678Z,32.97
2023-03-01T18:47:06.049Z,32.35
2023-03-01T18:49:34.145Z,31.52
2023-03-01T18:52:01.728Z,31.50
2023-03-01T18:54:29.867Z,32.70
2023-03-01T18:56:57.484Z,32.42
2023-03-01T18:59:25.387Z,33.92
2023-03-01T19:01:52.820Z,34.00
2023-03-01T19:04:20.705Z,32.33
2023-03-01T19:06:48.165Z,34.15
2023-03-01T19:09:16.230Z,32.85
2023-03-01T19:11:43.651Z,34.33
2023-03-01T19:14:11.320Z,46.28
2023-03-01T19:16:39.047Z,40.05
2023-03-01T19:19:08.968Z,42.03
2023-03-01T19:21:37.246Z,57.88
2023-03-01T19:24:05.721Z,49.50
2023-03-01T19:26:33.775Z,63.05
2023-03-01T19:29:03.776Z,59.30
2023-03-01T19:31:32.206Z,48.60
2023-03-01T19:34:16.033Z,46.15
2023-03-01T19:36:44.687Z,42.05
2023-03-01T19:39:14.624Z,42.15
2023-03-01T19:41:43.926Z,42.33
2023-03-01T19:44:12.371Z,42.65
2023-03-01T19:46:40.977Z,40.63
2023-03-01T19:49:09.786Z,38.47
2023-03-01T19:51:39.199Z,41.55
2023-03-01T19:54:10.533Z,38.40
2023-03-01T19:56:47.113Z,39.10
2023-03-01T19:59:16.285Z,41.42
2023-03-01T20:01:43.627Z,40.63
2023-03-01T20:04:13.134Z,43.20
2023-03-01T20:06:41.732Z,43.17
2023-03-01T20:09:21.138Z,42.05
2023-03-01T20:11:50.563Z,43.65
2023-03-01T20:14:23.736Z,44.25
2023-03-01T20:16:53.382Z,41.05
2023-03-01T20:19:21.435Z,42.78
2023-03-01T20:21:48.973Z,44.35
2023-03-01T20:24:16.577Z,44.15
2023-03-01T20:26:44.099Z,46.75
2023-03-01T20:29:12.786Z,47.20
2023-03-01T20:31:41.832Z,43.97
2023-03-01T20:34:09.711Z,44.42
2023-03-01T20:36:39.007Z,44.60
2023-03-01T20:39:10.828Z,43.60
2023-03-01T20:41:39.497Z,46.10
2023-03-01T20:44:07.343Z,47.25
2023-03-01T20:46:35.595Z,44.30
2023-03-01T20:49:04.936Z,48.33
2023-03-01T20:51:32.309Z,46.35
2023-03-01T20:54:00.153Z,46.35
2023-03-01T20:56:27.591Z,43.10
2023-03-01T20:59:09.958Z,43.10
2023-03-01T21:01:38.799Z,42.10
2023-03-01T21:04:06.820Z,44.35
2023-03-01T21:06:34.581Z,43.72
2023-03-01T21:09:02.385Z,47.80
2023-03-01T21:11:30.008Z,45.75
2023-03-01T21:13:59.597Z,45.67
2023-03-01T21:16:28.292Z,43.55
2023-03-01T21:18:56.109Z,52.80
2023-03-01T21:21:24.283Z,48.42
2023-03-01T21:23:52.225Z,48.40
2023-03-01T21:26:21.996Z,53.63
2023-03-01T21:28:54.622Z,51.53
2023-03-01T21:31:24.140Z,48.75
2023-03-01T21:33:53.659Z,48.45
2023-03-01T21:36:22.627Z,47.20
2023-03-01T21:38:52.917Z,48.50
2023-03-01T21:41:25.822Z,44.83
2023-03-01T21:43:57.039Z,47.38
2023-03-01T21:46:26.355Z,50.95
2023-03-01T21:48:57.812Z,54.80
2023-03-01T21:51:31.346Z,55.75
2023-03-01T21:54:01.674Z,48.53
2023-03-01T21:56:32.133Z,49.95
2023-03-01T21:59:00.076Z,50.50
2023-03-01T22:01:28.828Z,55.60
2023-03-01T22:03:58.580Z,56.47
2023-03-01T22:06:35.453Z,52.70
2023-03-01T22:09:07.690Z,53.40
2023-03-01T22:11:38.028Z,52.90
2023-03-01T22:14:06.020Z,54.22
2023-03-01T22:16:35.748Z,51.88
2023-03-01T22:19:04.924Z,55.20
2023-03-01T22:21:32.280Z,57.53
2023-03-01T22:24:00.179Z,57.85
2023-03-01T22:26:31.057Z,57.15
2023-03-01T22:29:01.781Z,71.13
2023-03-01T22:31:29.202Z,65.68
2023-03-01T22:33:57.904Z,60.08
2023-03-01T22:36:26.085Z,58.10
2023-03-01T22:39:00.127Z,54.83
2023-03-01T22:41:33.562Z,57.97
2023-03-01T22:44:01.408Z,56.70
2023-03-01T22:46:29.322Z,53.00
2023-03-01T22:48:56.906Z,56.88
2023-03-01T22:51:30.076Z,56.08
2023-03-01T22:53:57.914Z,54.33
2023-03-01T22:56:29.240Z,55.08
2023-03-01T22:59:12.804Z,57.30
2023-03-01T23:04:09.215Z,52.75
2023-03-01T23:06:50.722Z,54.65
2023-03-01T23:09:21.315Z,57.40
2023-03-01T23:11:49.410Z,54.05
2023-03-01T23:14:17.094Z,60.15
2023-03-01T23:16:44.510Z,58.67
2023-03-01T23:19:12.346Z,56.55
2023-03-01T23:21:44.281Z,56.58
2023-03-01T23:24:12.619Z,56.78
2023-03-01T23:26:40.642Z,56.85
2023-03-01T23:29:08.823Z,56.83
2023-03-01T23:31:36.093Z,59.35
2023-03-01T23:34:04.326Z,58.53
2023-03-01T23:36:34.281Z,57.00
2023-03-01T23:39:04.769Z,58.08
2023-03-01T23:41:33.762Z,58.47
2023-03-01T23:44:02.771Z,55.92
2023-03-01T23:46:34.069Z,52.42
2023-03-01T23:49:02.531Z,54.00
2023-03-01T23:51:29.854Z,53.42
2023-03-01T23:54:02.536Z,52.88
2023-03-01T23:56:36.190Z,53.78
2023-03-01T23:59:09.346Z,51.42
